createdAt,value
2022-09-28T00:00:38.695Z,8.09
2022-09-28T00:03:06.366Z,8.04
2022-09-28T00:05:32.712Z,8.04
2022-09-28T00:07:58.966Z,8.07
2022-09-28T00:10:25.246Z,8.04
2022-09-28T00:12:51.835Z,8.04
2022-09-28T00:15:18.141Z,8.00
2022-09-28T00:17:44.539Z,7.96
2022-09-28T00:20:12.175Z,7.94
2022-09-28T00:22:38.631Z,7.93
2022-09-28T00:25:05.528Z,7.94
2022-09-28T00:27:32.097Z,7.88
2022-09-28T00:29:58.374Z,7.87
2022-09-28T00:32:24.753Z,7.85
2022-09-28T00:34:51.602Z,7.83
2022-09-28T00:37:19.565Z,7.84
2022-09-28T00:39:46.302Z,7.80
2022-09-28T00:42:14.088Z,7.80
2022-09-28T00:44:42.100Z,7.79
2022-09-28T00:47:31.675Z,7.75
2022-09-28T00:50:00.477Z,7.73
2022-09-28T00:52:30.474Z,7.73
2022-09-28T00:54:57.628Z,7.69
2022-09-28T00:57:24.816Z,7.68
2022-09-28T00:59:51.966Z,7.67
2022-09-28T01:02:19.200Z,7.71
2022-09-28T01:04:45.938Z,7.72
2022-09-28T01:07:12.907Z,7.74
2022-09-28T01:09:40.559Z,7.75
2022-09-28T01:12:07.005Z,7.78
2022-09-28T01:14:33.445Z,7.77
2022-09-28T01:17:04.249Z,7.80
2022-09-28T01:19:44.234Z,7.82
2022-09-28T01:22:17.679Z,7.83
2022-09-28T01:24:46.137Z,7.86
2022-09-28T01:27:16.973Z,7.85
2022-09-28T01:29:47.952Z,7.85
2022-09-28T01:32:22.502Z,7.85
2022-09-28T01:34:54.814Z,7.84
2022-09-28T01:37:21.991Z,7.84
2022-09-28T01:39:49.719Z,7.86
2022-09-28T01:42:20.758Z,7.88
2022-09-28T01:44:49.334Z,7.88
2022-09-28T01:47:19.701Z,7.92
2022-09-28T01:49:48.108Z,7.91
2022-09-28T01:52:16.362Z,7.93
2022-09-28T01:54:44.833Z,7.94
2022-09-28T01:57:14.157Z,7.96
2022-09-28T01:59:45.043Z,7.96
2022-09-28T02:02:14.277Z,7.98
2022-09-28T02:04:43.942Z,7.98
2022-09-28T02:07:13.202Z,8.00
2022-09-28T02:09:41.923Z,8.02
2022-09-28T02:12:10.955Z,8.02
2022-09-28T02:14:39.393Z,8.03
2022-09-28T02:17:07.208Z,8.05
2022-09-28T02:19:33.658Z,8.11
2022-09-28T02:22:03.537Z,8.12
2022-09-28T02:24:35.342Z,8.12
2022-09-28T02:27:05.883Z,8.16
2022-09-28T02:29:32.175Z,8.14
2022-09-28T02:31:58.447Z,8.16
2022-09-28T02:34:26.068Z,8.18
2022-09-28T02:36:52.346Z,8.15
2022-09-28T02:39:18.738Z,8.18
2022-09-28T02:41:51.829Z,8.19
2022-09-28T02:44:27.718Z,8.17
2022-09-28T02:46:57.533Z,8.17
2022-09-28T02:49:29.076Z,8.16
2022-09-28T02:52:13.459Z,8.17
2022-09-28T02:54:49.774Z,8.16
2022-09-28T02:57:21.886Z,8.16
2022-09-28T02:59:52.490Z,8.14
2022-09-28T03:02:22.537Z,8.12
2022-09-28T03:04:54.470Z,8.10
2022-09-28T03:07:24.926Z,8.10
2022-09-28T03:09:55.633Z,8.04
2022-09-28T03:12:23.190Z,8.04
2022-09-28T03:15:05.127Z,8.01
2022-09-28T03:17:31.544Z,8.05
2022-09-28T03:19:57.807Z,8.00
2022-09-28T03:22:25.413Z,7.98
2022-09-28T03:24:51.683Z,7.96
2022-09-28T03:27:17.953Z,7.91
2022-09-28T03:29:44.217Z,7.88
2022-09-28T03:32:10.503Z,7.87
2022-09-28T03:34:36.758Z,7.85
2022-09-28T03:37:03.012Z,7.80
2022-09-28T03:39:30.646Z,7.79
2022-09-28T03:41:57.088Z,7.77
2022-09-28T03:44:23.354Z,7.76
2022-09-28T03:46:49.607Z,7.74
2022-09-28T03:49:15.950Z,7.71
2022-09-28T03:51:42.222Z,7.67
2022-09-28T03:54:08.495Z,7.67
2022-09-28T03:56:36.095Z,7.67
2022-09-28T03:59:02.898Z,7.67
2022-09-28T04:01:29.260Z,7.67
2022-09-28T04:03:55.581Z,7.65
2022-09-28T04:06:21.942Z,7.67
2022-09-28T04:08:48.190Z,7.67
2022-09-28T04:11:14.463Z,7.67
2022-09-28T04:13:42.106Z,7.68
2022-09-28T04:16:10.012Z,7.68
2022-09-28T04:18:36.391Z,7.67
2022-09-28T04:21:03.641Z,7.67
2022-09-28T04:23:30.316Z,7.64
2022-09-28T04:25:56.595Z,7.61
2022-09-28T04:28:22.868Z,7.57
2022-09-28T04:30:50.503Z,7.56
2022-09-28T04:33:16.766Z,7.54
2022-09-28T04:35:43.026Z,7.53
2022-09-28T04:38:09.279Z,7.53
2022-09-28T04:40:35.596Z,7.53
2022-09-28T04:43:01.911Z,7.56
2022-09-28T04:45:28.279Z,7.58
2022-09-28T04:47:55.925Z,7.59
2022-09-28T04:50:22.214Z,7.59
2022-09-28T04:52:48.463Z,7.59
2022-09-28T04:55:14.807Z,7.61
2022-09-28T04:57:41.086Z,7.59
2022-09-28T05:00:07.922Z,7.58
2022-09-28T05:02:34.240Z,7.61
2022-09-28T05:05:01.898Z,7.57
2022-09-28T05:07:28.679Z,7.60
2022-09-28T05:09:54.941Z,7.65
2022-09-28T05:12:21.209Z,7.55
2022-09-28T05:14:47.475Z,7.49
2022-09-28T05:17:13.758Z,7.49
2022-09-28T05:19:40.063Z,7.48
2022-09-28T05:22:07.796Z,7.42
2022-09-28T05:24:34.064Z,7.40
2022-09-28T05:27:00.334Z,7.39
2022-09-28T05:29:31.362Z,7.34
2022-09-28T05:31:58.494Z,7.32
2022-09-28T05:34:24.831Z,7.29
2022-09-28T05:36:51.086Z,7.31
2022-09-28T05:39:18.846Z,7.29
2022-09-28T05:41:45.219Z,7.31
2022-09-28T05:44:11.478Z,7.37
2022-09-28T05:46:37.742Z,7.40
2022-09-28T05:49:04.026Z,7.38
2022-09-28T05:51:30.292Z,7.38
2022-09-28T05:53:58.826Z,7.36
2022-09-28T05:56:29.542Z,7.38
2022-09-28T05:58:55.790Z,7.36
2022-09-28T06:01:22.145Z,7.43
2022-09-28T06:03:48.455Z,7.38
2022-09-28T06:06:14.728Z,7.37
2022-09-28T06:08:41.060Z,7.37
2022-09-28T06:11:07.327Z,7.40
2022-09-28T06:13:34.944Z,7.43
2022-09-28T06:16:01.213Z,7.48
2022-09-28T06:18:27.486Z,7.52
2022-09-28T06:20:53.743Z,7.55
2022-09-28T06:23:20.022Z,7.57
2022-09-28T06:25:46.296Z,7.62
2022-09-28T06:28:13.558Z,7.66
2022-09-28T06:30:42.021Z,7.71
2022-09-28T06:33:10.731Z,7.76
2022-09-28T06:35:36.983Z,7.81
2022-09-28T06:38:03.603Z,7.87
2022-09-28T06:40:30.266Z,7.92
2022-09-28T06:42:57.258Z,7.94
2022-09-28T06:45:24.008Z,7.99
2022-09-28T06:47:53.779Z,8.00
2022-09-28T06:50:20.063Z,8.03
2022-09-28T06:52:49.095Z,8.04
2022-09-28T06:55:15.453Z,8.03
2022-09-28T06:57:41.710Z,8.00
2022-09-28T07:00:08.649Z,8.01
2022-09-28T07:02:35.005Z,8.11
2022-09-28T07:05:02.677Z,8.11
2022-09-28T07:07:28.964Z,8.14
2022-09-28T07:09:55.509Z,8.17
2022-09-28T07:12:22.015Z,8.21
2022-09-28T07:14:48.643Z,8.25
2022-09-28T07:17:15.463Z,8.30
2022-09-28T07:19:41.831Z,8.31
2022-09-28T07:22:09.431Z,8.44
2022-09-28T07:24:35.773Z,8.45
2022-09-28T07:27:02.034Z,8.49
2022-09-28T07:29:28.278Z,8.55
2022-09-28T07:31:54.548Z,8.63
2022-09-28T07:34:20.811Z,8.71
2022-09-28T07:36:47.080Z,8.76
2022-09-28T07:39:14.686Z,8.82
2022-09-28T07:41:40.948Z,8.87
2022-09-28T07:44:07.212Z,8.93
2022-09-28T07:46:33.573Z,8.95
2022-09-28T07:48:59.880Z,9.01
2022-09-28T07:51:26.258Z,9.08
2022-09-28T07:53:52.520Z,9.16
2022-09-28T07:56:20.242Z,9.21
2022-09-28T07:58:46.912Z,9.24
2022-09-28T08:01:13.595Z,9.30
2022-09-28T08:03:39.873Z,9.35
2022-09-28T08:06:06.799Z,9.44
2022-09-28T08:08:33.267Z,9.47
2022-09-28T08:10:59.627Z,9.56
2022-09-28T08:13:27.499Z,9.60
2022-09-28T08:15:54.043Z,9.60
2022-09-28T08:18:20.635Z,9.72
2022-09-28T08:20:50.757Z,9.80
2022-09-28T08:23:18.129Z,9.92
2022-09-28T08:25:46.560Z,9.92
2022-09-28T08:28:12.839Z,10.01
2022-09-28T08:30:40.546Z,10.07
2022-09-28T08:33:06.871Z,10.12
2022-09-28T08:35:33.436Z,10.32
2022-09-28T08:37:59.681Z,10.30
2022-09-28T08:40:26.010Z,10.35
2022-09-28T08:42:55.558Z,10.36
2022-09-28T08:45:24.809Z,10.48
2022-09-28T08:47:54.007Z,10.51
2022-09-28T08:50:22.112Z,10.61
2022-09-28T08:52:51.281Z,10.64
2022-09-28T08:55:22.364Z,10.67
2022-09-28T08:57:52.484Z,10.73
2022-09-28T09:00:20.324Z,10.84
2022-09-28T09:02:47.298Z,10.94
2022-09-28T09:05:16.571Z,11.01
2022-09-28T09:07:51.070Z,11.06
2022-09-28T09:10:27.715Z,11.13
2022-09-28T09:12:58.049Z,11.22
2022-09-28T09:15:38.070Z,11.28
2022-09-28T09:18:11.284Z,11.38
2022-09-28T09:20:44.004Z,11.37
2022-09-28T09:23:13.851Z,11.42
2022-09-28T09:25:41.192Z,11.46
2022-09-28T09:28:18.493Z,11.43
2022-09-28T09:30:48.921Z,11.53
2022-09-28T09:33:33.087Z,11.67
2022-09-28T09:36:06.418Z,11.87
2022-09-28T09:38:41.285Z,11.92
2022-09-28T09:44:08.774Z,12.09
2022-09-28T09:46:38.274Z,12.17
2022-09-28T09:49:07.217Z,12.08
2022-09-28T09:51:39.003Z,12.02
2022-09-28T09:54:11.021Z,12.08
2022-09-28T09:56:40.220Z,12.08
2022-09-28T09:59:08.128Z,12.05
2022-09-28T10:01:35.808Z,12.20
2022-09-28T10:04:04.717Z,12.39
2022-09-28T10:06:33.199Z,12.58
2022-09-28T10:09:03.166Z,12.59
2022-09-28T10:11:33.042Z,12.78
2022-09-28T10:13:59.295Z,12.95
2022-09-28T10:16:25.915Z,13.15
2022-09-28T10:18:52.218Z,13.23
2022-09-28T10:21:20.244Z,13.31
2022-09-28T10:23:49.983Z,13.38
2022-09-28T10:26:24.651Z,13.23
2022-09-28T10:28:53.044Z,13.29
2022-09-28T10:31:36.029Z,13.32
2022-09-28T10:34:02.829Z,13.36
2022-09-28T10:36:29.325Z,13.45
2022-09-28T10:38:55.611Z,13.45
2022-09-28T10:41:23.228Z,13.48
2022-09-28T10:43:56.144Z,13.48
2022-09-28T10:46:24.448Z,13.53
2022-09-28T10:48:53.891Z,13.49
2022-09-28T10:51:20.459Z,13.84
2022-09-28T10:53:58.016Z,13.60
2022-09-28T10:56:27.530Z,13.55
2022-09-28T10:58:53.816Z,13.58
2022-09-28T11:01:22.242Z,13.66
2022-09-28T11:03:50.474Z,13.72
2022-09-28T11:06:23.468Z,13.80
2022-09-28T11:08:50.397Z,13.89
2022-09-28T11:11:18.086Z,13.89
2022-09-28T11:13:47.050Z,13.85
2022-09-28T11:16:24.293Z,13.79
2022-09-28T11:18:50.896Z,13.75
2022-09-28T11:21:18.614Z,13.72
2022-09-28T11:23:55.522Z,13.62
2022-09-28T11:26:22.047Z,13.52
2022-09-28T11:28:51.693Z,13.40
2022-09-28T11:31:24.014Z,13.35
2022-09-28T11:33:50.303Z,13.32
2022-09-28T11:36:26.086Z,13.23
2022-09-28T11:38:59.949Z,13.25
2022-09-28T11:41:46.919Z,13.14
2022-09-28T11:44:33.263Z,13.16
2022-09-28T11:47:07.904Z,13.31
2022-09-28T11:49:37.921Z,13.45
2022-09-28T11:52:08.078Z,13.47
2022-09-28T11:54:40.448Z,13.61
2022-09-28T11:57:12.140Z,13.48
2022-09-28T11:59:40.609Z,13.47
2022-09-28T12:02:13.291Z,13.46
2022-09-28T12:04:42.181Z,13.42
2022-09-28T12:07:10.339Z,13.36
2022-09-28T12:09:39.960Z,13.45
2022-09-28T12:12:11.731Z,13.56
2022-09-28T12:14:39.105Z,13.70
2022-09-28T12:17:09.270Z,13.79
2022-09-28T12:19:39.824Z,13.87
2022-09-28T12:22:12.514Z,13.88
2022-09-28T12:24:42.152Z,13.83
2022-09-28T12:27:14.171Z,13.75
2022-09-28T12:29:41.480Z,13.73
2022-09-28T12:32:12.804Z,13.77
2022-09-28T12:34:42.053Z,13.82
2022-09-28T12:37:16.166Z,13.95
2022-09-28T12:39:57.638Z,14.40
2022-09-28T12:42:40.789Z,14.49
2022-09-28T12:45:17.084Z,14.46
2022-09-28T12:47:57.823Z,14.47
2022-09-28T12:50:50.112Z,14.44
2022-09-28T12:53:35.959Z,14.46
2022-09-28T12:56:03.473Z,14.56
2022-09-28T12:58:38.483Z,14.69
2022-09-28T13:01:11.212Z,14.56
2022-09-28T13:03:59.884Z,14.47
2022-09-28T13:06:35.266Z,14.39
2022-09-28T13:09:07.768Z,14.49
2022-09-28T13:11:38.175Z,14.29
2022-09-28T13:14:14.452Z,14.27
2022-09-28T13:16:45.857Z,14.16
2022-09-28T13:19:15.040Z,14.06
2022-09-28T13:21:47.835Z,14.30
2022-09-28T13:24:31.637Z,14.09
2022-09-28T13:27:02.587Z,13.96
2022-09-28T13:29:29.029Z,13.99
2022-09-28T13:31:57.371Z,13.93
2022-09-28T13:34:25.285Z,13.95
2022-09-28T13:37:19.312Z,13.97
2022-09-28T13:39:49.642Z,14.00
2022-09-28T13:42:28.147Z,14.00
2022-09-28T13:45:05.999Z,13.93
2022-09-28T13:47:45.415Z,13.88
2022-09-28T13:50:20.785Z,13.78
2022-09-28T13:52:53.218Z,13.71
2022-09-28T13:55:24.642Z,14.02
2022-09-28T13:57:53.753Z,13.83
2022-09-28T14:00:23.134Z,13.56
2022-09-28T14:02:53.380Z,13.60
2022-09-28T14:05:40.580Z,13.39
2022-09-28T14:08:21.775Z,13.43
2022-09-28T14:10:50.540Z,13.19
2022-09-28T14:13:31.713Z,13.06
2022-09-28T14:16:12.906Z,12.75
2022-09-28T14:18:39.210Z,12.55
2022-09-28T14:21:30.819Z,12.46
2022-09-28T14:24:05.466Z,12.35
2022-09-28T14:26:46.637Z,12.21
2022-09-28T14:29:22.348Z,12.18
2022-09-28T14:31:48.711Z,11.91
2022-09-28T14:34:25.920Z,11.85
2022-09-28T14:36:52.283Z,11.77
2022-09-28T14:39:22.603Z,11.71
2022-09-28T14:41:49.115Z,11.79
2022-09-28T14:44:16.792Z,11.79
2022-09-28T14:46:44.135Z,11.82
2022-09-28T14:49:29.299Z,11.73
2022-09-28T14:52:02.467Z,11.69
2022-09-28T14:54:35.884Z,11.72
2022-09-28T14:57:07.147Z,11.78
2022-09-28T14:59:40.578Z,11.81
2022-09-28T15:02:12.229Z,11.88
2022-09-28T15:04:41.596Z,11.99
2022-09-28T15:07:17.988Z,12.11
2022-09-28T15:09:44.285Z,12.20
2022-09-28T15:12:17.486Z,12.31
2022-09-28T15:14:47.526Z,12.43
2022-09-28T15:17:18.732Z,12.66
2022-09-28T15:19:51.048Z,12.79
2022-09-28T15:22:18.068Z,12.90
2022-09-28T15:24:45.461Z,12.84
2022-09-28T15:27:14.598Z,12.76
2022-09-28T15:29:40.855Z,12.68
2022-09-28T15:32:23.736Z,12.65
2022-09-28T15:34:50.003Z,12.68
2022-09-28T15:37:17.431Z,12.90
2022-09-28T15:39:43.808Z,12.78
2022-09-28T15:42:10.063Z,12.86
2022-09-28T15:44:37.325Z,12.82
2022-09-28T15:47:06.415Z,12.77
2022-09-28T15:49:38.932Z,12.68
2022-09-28T15:52:05.738Z,12.57
2022-09-28T15:54:37.321Z,12.55
2022-09-28T15:57:03.724Z,12.56
2022-09-28T15:59:31.210Z,12.56
2022-09-28T16:02:18.603Z,12.51
2022-09-28T16:04:48.146Z,12.55
2022-09-28T16:07:18.202Z,12.58
2022-09-28T16:09:54.947Z,12.59
2022-09-28T16:12:21.539Z,12.60
2022-09-28T16:14:48.483Z,12.59
2022-09-28T16:17:17.579Z,12.56
2022-09-28T16:19:43.874Z,12.52
2022-09-28T16:22:16.028Z,12.47
2022-09-28T16:24:42.536Z,12.42
2022-09-28T16:27:22.935Z,12.38
2022-09-28T16:30:02.083Z,12.34
2022-09-28T16:32:36.730Z,12.31
2022-09-28T16:35:15.901Z,12.28
2022-09-28T16:37:43.478Z,12.25
2022-09-28T16:40:10.328Z,12.26
2022-09-28T16:42:37.573Z,12.31
2022-09-28T16:45:04.312Z,12.18
2022-09-28T16:47:30.944Z,12.10
2022-09-28T16:49:57.215Z,12.05
2022-09-28T16:52:23.492Z,12.02
2022-09-28T16:54:52.066Z,11.93
2022-09-28T16:57:18.371Z,11.87
2022-09-28T16:59:44.652Z,11.82
2022-09-28T17:02:42.201Z,11.79
2022-09-28T17:05:04.937Z,11.65
2022-09-28T17:07:31.558Z,11.58
2022-09-28T17:09:59.214Z,11.53
2022-09-28T17:12:25.586Z,11.47
2022-09-28T17:14:51.854Z,11.40
2022-09-28T17:17:18.161Z,11.32
2022-09-28T17:19:44.553Z,11.26
2022-09-28T17:22:10.832Z,11.24
2022-09-28T17:24:37.148Z,11.17
2022-09-28T17:27:04.946Z,11.09
2022-09-28T17:29:31.214Z,11.01
2022-09-28T17:31:57.475Z,10.95
2022-09-28T17:34:23.758Z,10.91
2022-09-28T17:36:50.056Z,10.83
2022-09-28T17:39:17.160Z,10.77
2022-09-28T17:41:43.423Z,10.70
2022-09-28T17:44:11.441Z,10.64
2022-09-28T17:46:38.546Z,10.58
2022-09-28T17:49:05.933Z,10.54
2022-09-28T17:51:33.059Z,10.46
2022-09-28T17:53:59.727Z,10.42
2022-09-28T17:56:31.057Z,10.35
2022-09-28T17:58:58.923Z,10.31
2022-09-28T18:01:26.747Z,10.25
2022-09-28T18:03:53.043Z,10.23
2022-09-28T18:06:19.304Z,10.21
2022-09-28T18:08:45.821Z,10.16
2022-09-28T18:11:12.435Z,10.13
2022-09-28T18:13:38.714Z,10.11
2022-09-28T18:16:05.528Z,10.09
2022-09-28T18:18:33.204Z,10.07
2022-09-28T18:20:59.855Z,10.04
2022-09-28T18:23:26.199Z,10.02
2022-09-28T18:25:52.464Z,9.98
2022-09-28T18:28:18.759Z,9.92
2022-09-28T18:30:45.208Z,9.88
2022-09-28T18:33:12.179Z,9.85
2022-09-28T18:35:40.197Z,9.83
2022-09-28T18:38:06.969Z,9.80
2022-09-28T18:40:33.708Z,9.75
2022-09-28T18:43:00.080Z,9.72
2022-09-28T18:45:26.423Z,9.67
2022-09-28T18:47:52.702Z,9.61
2022-09-28T18:50:19.014Z,9.54
2022-09-28T18:52:46.612Z,9.49
2022-09-28T18:55:12.922Z,9.46
2022-09-28T18:57:39.743Z,9.46
2022-09-28T19:00:07.204Z,9.42
2022-09-28T19:02:33.560Z,9.38
2022-09-28T19:04:59.895Z,9.34
2022-09-28T19:07:26.179Z,9.31
2022-09-28T19:09:53.768Z,9.25
2022-09-28T19:12:20.179Z,9.23
2022-09-28T19:14:47.923Z,9.26
2022-09-28T19:17:14.187Z,9.27
2022-09-28T19:19:40.600Z,9.28
2022-09-28T19:22:06.936Z,9.26
2022-09-28T19:24:33.220Z,9.28
2022-09-28T19:27:00.846Z,9.25
2022-09-28T19:29:27.181Z,9.23
2022-09-28T19:31:53.457Z,9.18
2022-09-28T19:34:19.823Z,9.12
2022-09-28T19:36:46.217Z,9.10
2022-09-28T19:39:13.314Z,9.08
2022-09-28T19:41:43.106Z,9.05
2022-09-28T19:44:12.540Z,9.02
2022-09-28T19:46:39.647Z,8.98
2022-09-28T19:49:07.549Z,8.98
2022-09-28T19:51:34.271Z,8.96
2022-09-28T19:54:01.242Z,8.97
2022-09-28T19:56:27.944Z,8.95
2022-09-28T19:58:54.214Z,8.93
2022-09-28T20:01:22.086Z,8.93
2022-09-28T20:03:48.377Z,8.92
2022-09-28T20:06:17.353Z,8.91
2022-09-28T20:08:44.783Z,8.90
2022-09-28T20:11:11.251Z,8.90
2022-09-28T20:13:37.531Z,8.89
2022-09-28T20:16:04.616Z,8.90
2022-09-28T20:18:33.459Z,8.89
2022-09-28T20:21:02.754Z,8.87
2022-09-28T20:23:29.036Z,8.87
2022-09-28T20:25:55.310Z,8.82
2022-09-28T20:28:21.595Z,8.79
2022-09-28T20:30:47.896Z,8.68
2022-09-28T20:33:19.174Z,8.68
2022-09-28T20:35:55.154Z,8.75
2022-09-28T20:38:21.408Z,8.84
2022-09-28T20:40:47.775Z,8.88
2022-09-28T20:43:14.131Z,8.92
2022-09-28T20:45:40.387Z,8.92
2022-09-28T20:48:06.860Z,8.94
2022-09-28T20:50:33.529Z,8.95
2022-09-28T20:53:01.467Z,8.96
2022-09-28T20:55:27.762Z,8.97
2022-09-28T20:57:54.027Z,8.98
2022-09-28T21:00:20.297Z,8.96
2022-09-28T21:02:50.800Z,8.97
2022-09-28T21:05:17.092Z,8.95
2022-09-28T21:07:43.363Z,8.93
2022-09-28T21:10:11.187Z,8.93
2022-09-28T21:12:37.461Z,8.88
2022-09-28T21:15:06.112Z,8.82
2022-09-28T21:17:32.530Z,8.75
2022-09-28T21:19:58.805Z,8.61
2022-09-28T21:22:25.068Z,8.52
2022-09-28T21:24:51.331Z,8.46
2022-09-28T21:27:18.924Z,8.41
2022-09-28T21:29:45.187Z,8.40
2022-09-28T21:32:11.443Z,8.40
2022-09-28T21:34:37.723Z,8.39
2022-09-28T21:37:03.991Z,8.35
2022-09-28T21:39:30.250Z,8.35
2022-09-28T21:41:56.522Z,8.34
2022-09-28T21:44:24.147Z,8.38
2022-09-28T21:46:50.460Z,8.38
2022-09-28T21:49:16.802Z,8.34
2022-09-28T21:51:43.058Z,8.29
2022-09-28T21:54:09.319Z,8.27
2022-09-28T21:56:35.606Z,8.24
2022-09-28T21:59:01.901Z,8.12
2022-09-28T22:01:29.624Z,8.08
2022-09-28T22:03:56.423Z,8.06
2022-09-28T22:06:23.442Z,8.06
2022-09-28T22:08:50.123Z,8.04
2022-09-28T22:11:17.247Z,8.02
2022-09-28T22:13:44.490Z,8.02
2022-09-28T22:16:11.430Z,7.99
2022-09-28T22:18:39.126Z,7.96
2022-09-28T22:21:06.440Z,7.91
2022-09-28T22:23:33.250Z,7.89
2022-09-28T22:26:00.503Z,7.88
2022-09-28T22:28:26.903Z,7.85
2022-09-28T22:30:53.229Z,7.79
2022-09-28T22:33:19.546Z,7.80
2022-09-28T22:35:47.149Z,7.80
2022-09-28T22:38:13.406Z,7.80
2022-09-28T22:40:42.186Z,7.79
2022-09-28T22:43:08.495Z,7.79
2022-09-28T22:45:34.754Z,7.78
2022-09-28T22:48:01.123Z,7.73
2022-09-28T22:50:27.391Z,7.64
2022-09-28T22:52:54.990Z,7.57
2022-09-28T22:55:21.277Z,7.55
2022-09-28T22:57:47.534Z,7.55
2022-09-28T23:00:14.203Z,7.54
2022-09-28T23:02:40.541Z,7.53
2022-09-28T23:05:06.881Z,7.48
2022-09-28T23:07:33.154Z,7.44
2022-09-28T23:10:00.785Z,7.41
2022-09-28T23:12:27.050Z,7.45
2022-09-28T23:30:40.561Z,7.39
2022-09-28T23:33:06.900Z,7.38
2022-09-28T23:35:33.701Z,7.35
2022-09-28T23:37:59.983Z,7.30
2022-09-28T23:40:26.312Z,7.28
2022-09-28T23:42:52.613Z,7.25
2022-09-28T23:45:18.917Z,7.23
2022-09-28T23:47:46.550Z,7.22
2022-09-28T23:50:12.845Z,7.23
2022-09-28T23:52:39.155Z,7.24
2022-09-28T23:55:05.926Z,7.24
2022-09-28T23:57:32.245Z,7.22
2022-09-28T23:59:58.537Z,7.21
